KOLS/OLS METAR and TAF weather

Enter ICAO airport designator
Station Type Date Time Source
KOLS METAR 2021/05/12 03:54 UTC NOAA

KOLS 120354Z AUTO 09004KT 10SM CLR 20/M08 A3000 RMK AO2 SLP101 T02001078


Station Type Date Time Source
KOLS Decoded METAR 2021/05/12 03:54 UTC NOAA

NOGALES INTERNATIONAL AIRPORT , AZ, United States (KOLS) 31-25N 110-51W 1184M
May 11, 2021 - 11:54 PM EDT / 2021.05.12 0354 UTC
Wind: from the E (090 degrees) at 5 MPH (4 KT):0
Visibility: 10 mile(s):0
Sky conditions: clear
Temperature: 68.0 F (20.0 C)
Dew Point: 18.0 F (-7.8 C)
Relative Humidity: 14%
Pressure (altimeter): 30 in. Hg (1015 hPa)
ob: KOLS 120354Z AUTO 09004KT 10SM CLR 20/M08 A3000 RMK AO2 SLP101 T02001078
cycle: 4

Station Type Date Time Source
KOLS TAF 2021/05/11 18:21 UTC NOAA

TAF KOLS 111720Z 1118/1218 20009KT P6SM SKC
FM111900 20010G16KT P6SM SKC
FM120100 24008KT P6SM SKC
FM120500 18004KT P6SM SKC
FM120900 12004KT P6SM SKC

Example: see airport list